Time,TemperatureF,DewpointF,PressureIn,WindDirection,WindDirectionDegrees,WindSpeedMPH,WindSpeedGustMPH,Humidity,HourlyPrecipIn,Conditions,Clouds,dailyrainin,SoftwareType,DateUTC
2013-05-11 00:14:00,72.5,62.0,29.83,ESE,117,0.0,-999.0,70,-99.99,,,0.00,weatherlink.com 1.10,2013-05-11 04:14:00,
2013-05-11 00:29:00,72.3,62.0,29.84,ENE,65,0.0,-999.0,70,-99.99,,,0.00,weatherlink.com 1.10,2013-05-11 04:29:00,
2013-05-11 00:44:00,72.3,62.0,29.83,East,83,0.0,-999.0,70,-99.99,,,0.00,weatherlink.com 1.10,2013-05-11 04:44:00,
2013-05-11 00:59:00,72.1,62.0,29.82,SE,131,0.0,-999.0,70,-99.99,,,0.00,weatherlink.com 1.10,2013-05-11 04:59:00,
2013-05-11 01:14:00,72.1,62.0,29.82,ESE,103,0.0,-999.0,70,-99.99,,,0.00,weatherlink.com 1.10,2013-05-11 05:14:00,
2013-05-11 01:29:00,71.8,62.0,29.82,NNE,17,0.0,-999.0,72,-99.99,,,0.00,weatherlink.com 1.10,2013-05-11 05:29:00,
2013-05-11 01:44:00,71.6,62.0,29.82,East,97,0.0,-999.0,71,-99.99,,,0.00,weatherlink.com 1.10,2013-05-11 05:44:00,
2013-05-11 01:59:00,71.8,62.0,29.82,SE,126,0.0,-999.0,70,-99.99,,,0.00,weatherlink.com 1.10,2013-05-11 05:59:00,
2013-05-11 02:14:00,71.8,62.0,29.82,SE,143,0.0,-999.0,70,-99.99,,,0.00,weatherlink.com 1.10,2013-05-11 06:14:00,
2013-05-11 02:29:00,71.6,61.0,29.82,SE,128,0.0,-999.0,70,-99.99,,,0.00,weatherlink.com 1.10,2013-05-11 06:29:00,
2013-05-11 02:44:00,71.5,61.0,29.81,NE,40,0.0,-999.0,70,-99.99,,,0.00,weatherlink.com 1.10,2013-05-11 06:44:00,
2013-05-11 03:00:00,71.3,61.0,29.81,ESE,107,0.0,-999.0,70,-99.99,,,0.00,weatherlink.com 1.10,2013-05-11 07:00:00,
2013-05-11 03:15:00,71.1,61.0,29.81,SE,128,0.0,-999.0,70,-99.99,,,0.00,weatherlink.com 1.10,2013-05-11 07:15:00,
2013-05-11 03:30:00,70.9,61.0,29.80,ESE,119,0.0,-999.0,70,-99.99,,,0.00,weatherlink.com 1.10,2013-05-11 07:30:00,
2013-05-11 03:45:00,70.8,60.0,29.80,East,89,0.0,-999.0,69,-99.99,,,0.00,weatherlink.com 1.10,2013-05-11 07:45:00,
2013-05-11 04:00:00,70.8,60.0,29.80,SSE,152,0.0,-999.0,68,-99.99,,,0.00,weatherlink.com 1.10,2013-05-11 08:00:00,
2013-05-11 04:15:00,70.9,59.0,29.80,NE,48,0.0,-999.0,67,-99.99,,,0.00,weatherlink.com 1.10,2013-05-11 08:15:00,
2013-05-11 04:30:00,70.6,59.0,29.79,North,10,0.0,-999.0,67,-99.99,,,0.00,weatherlink.com 1.10,2013-05-11 08:30:00,
2013-05-11 04:45:00,70.4,58.0,29.79,South,169,0.0,-999.0,66,-99.99,,,0.00,weatherlink.com 1.10,2013-05-11 08:45:00,
2013-05-11 05:00:00,70.1,59.0,29.80,East,90,0.0,-999.0,67,-99.99,,,0.00,weatherlink.com 1.10,2013-05-11 09:00:00,
2013-05-11 05:15:00,69.9,58.0,29.79,ESE,104,0.0,-999.0,67,-99.99,,,0.00,weatherlink.com 1.10,2013-05-11 09:15:00,
2013-05-11 05:30:00,69.8,58.0,29.79,SE,138,1.0,-999.0,66,-99.99,,,0.00,weatherlink.com 1.10,2013-05-11 09:30:00,
2013-05-11 05:45:00,69.6,58.0,29.79,SSE,157,0.0,-999.0,66,-99.99,,,0.00,weatherlink.com 1.10,2013-05-11 09:45:00,
2013-05-11 06:00:00,69.3,58.0,29.79,SE,133,0.0,-999.0,67,-99.99,,,0.00,weatherlink.com 1.10,2013-05-11 10:00:00,
2013-05-11 06:15:00,69.1,58.0,29.80,South,186,0.0,-999.0,67,-99.99,,,0.00,weatherlink.com 1.10,2013-05-11 10:15:00,
2013-05-11 06:30:00,68.9,57.0,29.80,SE,133,4.0,-999.0,67,-99.99,,,0.00,weatherlink.com 1.10,2013-05-11 10:30:00,
2013-05-11 06:45:00,68.6,58.0,29.80,SE,145,0.0,-999.0,69,-99.99,,,0.00,weatherlink.com 1.10,2013-05-11 10:45:00,
2013-05-11 07:00:00,68.8,59.0,29.80,SE,130,0.0,-999.0,70,-99.99,,,0.00,weatherlink.com 1.10,2013-05-11 11:00:00,
2013-05-11 07:15:00,68.8,59.0,29.80,South,175,0.0,-999.0,70,-99.99,,,0.00,weatherlink.com 1.10,2013-05-11 11:15:00,
2013-05-11 07:30:00,68.6,59.0,29.80,SSW,209,0.0,-999.0,72,-99.99,,,0.00,weatherlink.com 1.10,2013-05-11 11:30:00,
2013-05-11 07:45:00,68.8,60.0,29.80,East,86,0.0,-999.0,74,-99.99,,,0.00,weatherlink.com 1.10,2013-05-11 11:45:00,
2013-05-11 08:00:00,69.4,61.0,29.80,SSE,157,6.0,-999.0,74,-99.99,,,0.00,weatherlink.com 1.10,2013-05-11 12:00:00,
2013-05-11 08:15:00,69.6,61.0,29.79,East,95,0.0,-999.0,75,-99.99,,,0.00,weatherlink.com 1.10,2013-05-11 12:15:00,
2013-05-11 08:30:00,70.9,62.0,29.79,SW,219,0.0,-999.0,73,-99.99,,,0.00,weatherlink.com 1.10,2013-05-11 12:30:00,
2013-05-11 08:45:00,71.5,62.0,29.79,SSW,195,3.0,-999.0,72,-99.99,,,0.00,weatherlink.com 1.10,2013-05-11 12:45:00,
2013-05-11 09:00:00,71.8,62.0,29.79,South,185,1.0,-999.0,72,-99.99,,,0.00,weatherlink.com 1.10,2013-05-11 13:00:00,
2013-05-11 09:15:00,72.8,62.0,29.79,SW,227,1.0,-999.0,70,-99.99,,,0.00,weatherlink.com 1.10,2013-05-11 13:15:00,
2013-05-11 09:30:00,73.7,63.0,29.79,East,93,2.0,-999.0,69,-99.99,,,0.00,weatherlink.com 1.10,2013-05-11 13:30:00,
2013-05-11 09:45:00,73.9,62.0,29.79,South,171,2.0,-999.0,66,-99.99,,,0.00,weatherlink.com 1.10,2013-05-11 13:45:00,
2013-05-11 10:00:00,74.7,61.0,29.78,SW,220,4.0,-999.0,62,-99.99,,,0.00,weatherlink.com 1.10,2013-05-11 14:00:00,
2013-05-11 10:15:00,76.1,62.0,29.78,South,189,7.0,-999.0,61,-99.99,,,0.00,weatherlink.com 1.10,2013-05-11 14:15:00,
2013-05-11 10:30:00,77.2,63.0,29.78,NE,48,1.0,-999.0,61,-99.99,,,0.00,weatherlink.com 1.10,2013-05-11 14:30:00,
2013-05-11 10:45:00,77.2,62.0,29.77,SSE,167,0.0,-999.0,60,-99.99,,,0.00,weatherlink.com 1.10,2013-05-11 14:45:00,
2013-05-11 11:00:00,77.7,61.0,29.76,SE,144,0.0,-999.0,57,-99.99,,,0.00,weatherlink.com 1.10,2013-05-11 15:00:00,
2013-05-11 11:15:00,78.5,62.0,29.76,SE,137,8.0,-999.0,57,-99.99,,,0.00,weatherlink.com 1.10,2013-05-11 15:15:00,
2013-05-11 11:30:00,78.3,61.0,29.76,SE,127,1.0,-999.0,56,-99.99,,,0.00,weatherlink.com 1.10,2013-05-11 15:30:00,
2013-05-11 11:45:00,79.6,61.0,29.76,SSW,208,0.0,-999.0,53,-99.99,,,0.00,weatherlink.com 1.10,2013-05-11 15:45:00,
2013-05-11 12:00:00,79.9,61.0,29.75,SSW,196,2.0,-999.0,52,-99.99,,,0.00,weatherlink.com 1.10,2013-05-11 16:00:00,
2013-05-11 12:15:00,80.1,59.0,29.76,SW,234,7.0,-999.0,49,-99.99,,,0.00,weatherlink.com 1.10,2013-05-11 16:15:00,
2013-05-11 12:30:00,80.5,61.0,29.75,SSE,157,9.0,-999.0,52,-99.99,,,0.00,weatherlink.com 1.10,2013-05-11 16:30:00,
2013-05-11 12:45:00,80.3,59.0,29.75,South,178,3.0,-999.0,49,-99.99,,,0.00,weatherlink.com 1.10,2013-05-11 16:45:00,
2013-05-11 13:00:00,79.9,61.0,29.74,WSW,239,2.0,-999.0,53,-99.99,,,0.00,weatherlink.com 1.10,2013-05-11 17:00:00,
2013-05-11 13:15:00,80.5,61.0,29.73,SSE,158,0.0,-999.0,52,-99.99,,,0.00,weatherlink.com 1.10,2013-05-11 17:15:00,
2013-05-11 13:30:00,80.3,62.0,29.73,South,176,2.0,-999.0,53,-99.99,,,0.00,weatherlink.com 1.10,2013-05-11 17:30:00,
2013-05-11 13:45:00,80.7,61.0,29.72,South,179,3.0,-999.0,51,-99.99,,,0.00,weatherlink.com 1.10,2013-05-11 17:45:00,
2013-05-11 14:00:00,80.7,62.0,29.71,South,179,5.0,-999.0,53,-99.99,,,0.00,weatherlink.com 1.10,2013-05-11 18:00:00,
2013-05-11 14:15:00,81.1,61.0,29.71,NE,56,0.0,-999.0,51,-99.99,,,0.00,weatherlink.com 1.10,2013-05-11 18:15:00,
2013-05-11 14:30:00,81.4,61.0,29.71,SSE,157,2.0,-999.0,51,-99.99,,,0.00,weatherlink.com 1.10,2013-05-11 18:30:00,
2013-05-11 14:45:00,80.7,60.0,29.70,SSW,213,5.0,-999.0,49,-99.99,,,0.00,weatherlink.com 1.10,2013-05-11 18:45:00,
2013-05-11 15:00:00,79.8,59.0,29.69,SE,145,1.0,-999.0,49,-99.99,,,0.00,weatherlink.com 1.10,2013-05-11 19:00:00,
2013-05-11 15:15:00,80.9,60.0,29.69,South,186,1.0,-999.0,49,-99.99,,,0.00,weatherlink.com 1.10,2013-05-11 19:15:00,
2013-05-11 15:30:00,80.9,60.0,29.68,SW,233,5.0,-999.0,49,-99.99,,,0.00,weatherlink.com 1.10,2013-05-11 19:30:00,
2013-05-11 15:45:00,81.4,60.0,29.68,South,172,1.0,-999.0,48,-99.99,,,0.00,weatherlink.com 1.10,2013-05-11 19:45:00,
2013-05-11 16:00:00,81.4,59.0,29.68,SSE,167,0.0,-999.0,47,-99.99,,,0.00,weatherlink.com 1.10,2013-05-11 20:00:00,
2013-05-11 16:15:00,81.4,61.0,29.67,SSE,154,0.0,-999.0,51,-99.99,,,0.00,weatherlink.com 1.10,2013-05-11 20:15:00,
2013-05-11 16:30:00,78.6,-99.9,29.68,SSW,200,0.0,-999.0,-999,-99.99,,,0.00,weatherlink.com 1.10,2013-05-11 20:30:00,
2013-05-11 16:46:00,73.9,65.0,29.69,SW,233,0.0,-999.0,73,-99.99,,,0.00,weatherlink.com 1.10,2013-05-11 20:46:00,
2013-05-11 17:01:00,71.5,66.0,29.70,SSW,193,0.0,-999.0,82,-99.99,,,0.01,weatherlink.com 1.10,2013-05-11 21:01:00,
2013-05-11 17:16:00,70.1,65.0,29.70,SE,124,0.0,-999.0,85,-99.99,,,0.04,weatherlink.com 1.10,2013-05-11 21:16:00,
2013-05-11 17:31:00,68.9,65.0,29.71,SE,124,0.0,-999.0,88,-99.99,,,0.06,weatherlink.com 1.10,2013-05-11 21:31:00,
2013-05-11 17:46:00,67.9,65.0,29.70,SE,128,0.0,-999.0,89,-99.99,,,0.08,weatherlink.com 1.10,2013-05-11 21:46:00,
2013-05-11 18:01:00,68.1,65.0,29.70,SE,128,0.0,-999.0,91,-99.99,,,0.08,weatherlink.com 1.10,2013-05-11 22:01:00,
2013-05-11 18:16:00,68.1,65.0,29.69,SE,128,0.0,-999.0,91,-99.99,,,0.08,weatherlink.com 1.10,2013-05-11 22:16:00,
2013-05-11 18:31:00,68.3,66.0,29.68,SE,128,0.0,-999.0,91,-99.99,,,0.08,weatherlink.com 1.10,2013-05-11 22:31:00,
2013-05-11 18:46:00,68.3,66.0,29.67,SE,128,0.0,-999.0,92,-99.99,,,0.08,weatherlink.com 1.10,2013-05-11 22:46:00,
2013-05-11 19:01:00,69.1,67.0,29.67,SE,128,0.0,-999.0,93,-99.99,,,0.08,weatherlink.com 1.10,2013-05-11 23:01:00,
2013-05-11 19:16:00,69.4,67.0,29.67,ESE,121,0.0,-999.0,91,-99.99,,,0.08,weatherlink.com 1.10,2013-05-11 23:16:00,
2013-05-11 19:31:00,69.3,67.0,29.67,ESE,121,0.0,-999.0,91,-99.99,,,0.08,weatherlink.com 1.10,2013-05-11 23:31:00,
2013-05-11 19:46:00,68.9,66.0,29.67,ESE,121,0.0,-999.0,91,-99.99,,,0.08,weatherlink.com 1.10,2013-05-11 23:46:00,
2013-05-11 20:01:00,68.6,66.0,29.68,ESE,121,0.0,-999.0,92,-99.99,,,0.08,weatherlink.com 1.10,2013-05-12 00:01:00,
2013-05-11 20:16:00,68.1,66.0,29.69,ESE,121,0.0,-999.0,92,-99.99,,,0.08,weatherlink.com 1.10,2013-05-12 00:16:00,
2013-05-11 20:31:00,67.6,66.0,29.69,ESE,121,0.0,-999.0,93,-99.99,,,0.08,weatherlink.com 1.10,2013-05-12 00:31:00,
2013-05-11 20:46:00,67.1,65.0,29.69,ESE,121,0.0,-999.0,93,-99.99,,,0.08,weatherlink.com 1.10,2013-05-12 00:46:00,
2013-05-11 21:01:00,66.8,65.0,29.69,ESE,121,0.0,-999.0,94,-99.99,,,0.08,weatherlink.com 1.10,2013-05-12 01:01:00,
2013-05-11 21:16:00,66.4,65.0,29.69,ESE,121,0.0,-999.0,94,-99.99,,,0.08,weatherlink.com 1.10,2013-05-12 01:16:00,
2013-05-11 21:31:00,66.3,65.0,29.69,ESE,121,0.0,-999.0,94,-99.99,,,0.08,weatherlink.com 1.10,2013-05-12 01:31:00,
2013-05-11 21:46:00,66.3,65.0,29.69,ESE,121,0.0,-999.0,95,-99.99,,,0.08,weatherlink.com 1.10,2013-05-12 01:46:00,
2013-05-11 22:01:00,66.1,65.0,29.69,ESE,121,0.0,-999.0,95,-99.99,,,0.08,weatherlink.com 1.10,2013-05-12 02:01:00,
2013-05-11 22:16:00,66.1,65.0,29.69,ESE,121,0.0,-999.0,95,-99.99,,,0.08,weatherlink.com 1.10,2013-05-12 02:16:00,
2013-05-11 22:31:00,66.1,65.0,29.69,ESE,123,0.0,-999.0,96,-99.99,,,0.08,weatherlink.com 1.10,2013-05-12 02:31:00,
2013-05-11 22:46:00,66.8,65.0,29.69,SE,141,0.0,-999.0,95,-99.99,,,0.08,weatherlink.com 1.10,2013-05-12 02:46:00,
2013-05-11 23:01:00,66.8,65.0,29.69,SE,128,0.0,-999.0,95,-99.99,,,0.08,weatherlink.com 1.10,2013-05-12 03:01:00,
2013-05-11 23:16:00,66.8,65.0,29.69,SE,134,0.0,-999.0,94,-99.99,,,0.08,weatherlink.com 1.10,2013-05-12 03:16:00,
2013-05-11 23:31:00,66.4,65.0,29.69,SE,136,0.0,-999.0,95,-99.99,,,0.08,weatherlink.com 1.10,2013-05-12 03:31:00,
2013-05-11 23:46:00,66.4,65.0,29.68,SE,136,0.0,-999.0,95,-99.99,,,0.08,weatherlink.com 1.10,2013-05-12 03:46:00,